Open Full Screen Window  High Contrast Mode
Wind Gusting 26 knots
18
November 21, 2017 2:03 PM EST
Weather Information
Wind Direction
  220 °
Wind Speed
  18 kt (21 mph)
Wind Gust
  26 kt (30 mph)
Altimeter
29.87 in
Visibility
10 SM
Temperature
11° C
52° F
Dewpoint
00° C
32° F
Humidity
47%
1hr Rain Fall
00.00 in.
24hr Rain Fall
00.00 in.
Sky Condition
Clear
VFR

METAR KDLZ 211903Z AUTO 22018G26KT 10SM CLR 11/00 A2987 RMK AO2

*Background is not an actual portrayal of the airport.